Time;durP1;ratioP1;P1;durP2;ratioP2;P2;SDS_P1;SDS_P2;PMS_P1;PMS_P2;Temp;Humidity;BMP_temperature;BMP_pressure;BME280_temperature;BME280_humidity;BME280_pressure;Samples;Min_cycle;Max_cycle;Signal;HPM_P1;HPM_P2
2023/05/24 00:00:11;;;;;;;;;19.00;18.00;25.40;41.20;;;;;;111232;1241;44162;-69
2023/05/24 00:02:58;;;;;;;;;20.50;16.25;25.40;41.30;;;;;;111178;1243;51446;-72
2023/05/24 00:05:25;;;;;;;;;14.75;14.00;25.40;41.30;;;;;;111262;1239;50666;-73
2023/05/24 00:07:52;;;;;;;;;17.50;15.00;25.40;41.20;;;;;;111245;1240;54081;-69
2023/05/24 00:10:19;;;;;;;;;17.00;15.75;25.40;41.20;;;;;;111206;1240;44415;-70
2023/05/24 00:12:46;;;;;;;;;17.00;16.00;25.40;41.40;;;;;;111225;1240;49407;-69
2023/05/24 00:15:13;;;;;;;;;15.25;14.25;25.40;41.40;;;;;;111340;1243;49133;-68
2023/05/24 00:17:41;;;;;;;;;15.75;13.75;25.40;41.30;;;;;;111205;1243;54023;-68
2023/05/24 00:20:10;;;;;;;;;19.00;15.00;25.40;41.40;;;;;;111297;1243;44479;-69
2023/05/24 00:22:38;;;;;;;;;14.25;13.25;25.30;41.20;;;;;;111359;1243;49764;-68
2023/05/24 00:25:06;;;;;;;;;16.75;15.75;25.30;41.20;;;;;;111299;1239;49591;-72
2023/05/24 00:27:35;;;;;;;;;16.50;15.50;25.30;41.30;;;;;;111306;1240;53448;-73
2023/05/24 00:30:04;;;;;;;;;17.25;16.25;25.30;41.20;;;;;;111388;1238;44155;-73
2023/05/24 00:32:31;;;;;;;;;13.75;12.50;25.30;41.40;;;;;;111223;1239;49622;-70
2023/05/24 00:34:58;;;;;;;;;15.00;14.00;25.30;41.20;;;;;;111251;1238;49724;-72
2023/05/24 00:37:26;;;;;;;;;15.00;14.00;25.30;41.40;;;;;;111218;1243;54027;-72
2023/05/24 00:39:53;;;;;;;;;15.00;14.25;25.30;41.20;;;;;;111191;1241;45176;-73
2023/05/24 00:42:20;;;;;;;;;19.00;17.75;25.30;41.30;;;;;;111230;1240;49461;-71
2023/05/24 00:44:46;;;;;;;;;17.33;13.67;25.30;41.30;;;;;;111243;1243;49462;-72
2023/05/24 00:47:14;;;;;;;;;16.00;15.00;25.20;41.30;;;;;;111184;1240;54025;-73
2023/05/24 00:49:42;;;;;;;;;15.75;14.75;25.20;41.30;;;;;;111177;1243;45720;-70
2023/05/24 00:52:09;;;;;;;;;15.00;14.00;25.20;41.30;;;;;;111205;1243;49741;-69
2023/05/24 00:54:39;;;;;;;;;15.33;13.67;25.20;41.50;;;;;;111244;1240;49387;-71
2023/05/24 00:57:06;;;;;;;;;15.67;14.67;25.20;41.40;;;;;;111205;1240;53654;-72
2023/05/24 00:59:33;;;;;;;;;15.50;14.50;25.20;41.40;;;;;;111238;1238;45076;-70
2023/05/24 01:02:00;;;;;;;;;16.33;15.33;25.20;41.40;;;;;;111232;1240;48707;-70
2023/05/24 01:04:27;;;;;;;;;17.00;14.00;25.20;41.40;;;;;;111172;1243;49643;-69
2023/05/24 01:06:59;;;;;;;;;14.50;13.25;25.20;41.50;;;;;;111271;1243;53416;-69
2023/05/24 01:09:38;;;;;;;;;15.50;14.50;25.20;41.50;;;;;;111191;1240;44979;-69
2023/05/24 01:12:08;;;;;;;;;15.00;14.00;25.20;41.50;;;;;;111303;1238;49689;-69
2023/05/24 01:15:05;;;;;;;;;17.00;16.00;25.20;41.40;;;;;;111239;1240;49887;-67
2023/05/24 01:17:47;;;;;;;;;16.00;13.00;25.20;41.60;;;;;;111226;1240;53436;-70
2023/05/24 01:20:16;;;;;;;;;15.00;12.50;25.20;41.30;;;;;;111212;1244;44392;-73
2023/05/24 01:23:04;;;;;;;;;18.50;17.50;25.20;41.20;;;;;;111233;1244;48850;-69
2023/05/24 01:26:05;;;;;;;;;18.00;17.00;25.20;41.70;;;;;;111213;1240;49962;-71
2023/05/24 01:28:34;;;;;;;;;13.00;11.50;25.10;41.10;;;;;;111190;1238;54137;-70
2023/05/24 01:31:01;;;;;;;;;15.00;14.00;25.10;41.10;;;;;;111184;1240;44565;-69
2023/05/24 01:33:28;;;;;;;;;13.75;12.75;25.10;41.10;;;;;;111332;1243;50369;-70
2023/05/24 01:35:55;;;;;;;;;16.00;14.75;25.10;41.10;;;;;;111236;1240;48940;-71
2023/05/24 01:38:22;;;;;;;;;16.75;15.50;25.00;41.20;;;;;;111181;1238;53825;-72
2023/05/24 01:40:52;;;;;;;;;15.00;14.00;25.00;41.10;;;;;;111218;1243;44289;-71
2023/05/24 01:43:30;;;;;;;;;18.00;15.00;25.00;40.80;;;;;;111243;1243;49348;-71
2023/05/24 01:46:21;;;;;;;;;16.33;14.67;25.00;40.70;;;;;;111251;1240;50304;-70
2023/05/24 01:49:03;;;;;;;;;15.75;14.50;24.90;40.60;;;;;;111270;1242;54102;-71
2023/05/24 01:51:39;;;;;;;;;20.50;16.00;24.90;40.10;;;;;;111213;1240;45915;-70
2023/05/24 01:54:06;;;;;;;;;14.00;13.00;24.90;40.60;;;;;;111296;1244;49206;-69
2023/05/24 01:56:34;;;;;;;;;15.25;14.25;24.90;40.60;;;;;;111204;1241;49967;-70
2023/05/24 01:59:02;;;;;;;;;16.50;14.25;24.90;40.60;;;;;;111293;1244;54742;-69
2023/05/24 02:01:30;;;;;;;;;14.67;13.67;24.90;40.60;;;;;;111244;1241;45927;-70
2023/05/24 02:03:58;;;;;;;;;17.00;15.00;24.80;40.60;;;;;;111218;1240;51028;-70
2023/05/24 02:06:25;;;;;;;;;19.50;15.25;24.80;40.60;;;;;;111210;1241;49214;-70
2023/05/24 02:08:52;;;;;;;;;14.75;13.75;24.80;40.90;;;;;;111188;1238;54686;-72
2023/05/24 02:11:19;;;;;;;;;14.00;13.00;24.80;40.70;;;;;;111198;1239;44996;-71
2023/05/24 02:13:46;;;;;;;;;15.67;14.67;24.80;41.20;;;;;;111207;1243;49074;-73
2023/05/24 02:16:13;;;;;;;;;16.75;15.00;24.70;40.60;;;;;;111236;1243;49252;-70
2023/05/24 02:18:43;;;;;;;;;17.00;15.50;24.70;40.60;;;;;;111237;1244;53618;-72
2023/05/24 02:21:11;;;;;;;;;14.00;13.00;24.70;40.60;;;;;;111205;1241;44799;-76
2023/05/24 02:23:38;;;;;;;;;16.00;15.00;24.70;40.60;;;;;;111290;1239;49353;-72
2023/05/24 02:26:05;;;;;;;;;15.00;13.00;24.70;40.70;;;;;;111239;1244;49373;-72
2023/05/24 02:28:32;;;;;;;;;16.25;14.00;24.70;40.70;;;;;;111234;1244;53509;-71
2023/05/24 02:30:59;;;;;;;;;17.50;15.25;24.70;41.20;;;;;;111225;1238;44981;-69
2023/05/24 02:33:28;;;;;;;;;15.00;14.00;24.70;40.70;;;;;;111210;1239;49577;-71
2023/05/24 02:35:55;;;;;;;;;16.00;15.00;24.60;40.70;;;;;;111227;1240;50075;-70
2023/05/24 02:38:22;;;;;;;;;15.33;14.00;24.60;40.70;;;;;;111395;1243;54508;-72
2023/05/24 02:40:49;;;;;;;;;20.00;16.00;24.60;40.60;;;;;;111318;1241;44861;-70
2023/05/24 02:43:16;;;;;;;;;14.67;13.67;24.60;40.60;;;;;;111214;1240;49417;-72
2023/05/24 02:45:43;;;;;;;;;17.25;15.00;24.60;40.70;;;;;;111282;1243;50409;-71
2023/05/24 02:48:10;;;;;;;;;16.00;15.00;24.60;40.80;;;;;;111243;1241;54371;-71
2023/05/24 02:50:37;;;;;;;;;15.25;14.25;24.60;40.70;;;;;;111265;1244;44464;-71
2023/05/24 02:53:04;;;;;;;;;15.75;14.50;24.60;40.80;;;;;;111248;1244;49826;-71
2023/05/24 02:55:31;;;;;;;;;17.00;16.00;24.60;40.90;;;;;;111323;1243;49724;-72
2023/05/24 02:57:58;;;;;;;;;15.00;13.67;24.50;40.80;;;;;;111218;1238;53845;-72
2023/05/24 03:00:25;;;;;;;;;16.75;15.75;24.60;40.90;;;;;;111193;1240;44807;-73
2023/05/24 03:02:52;;;;;;;;;16.00;15.00;24.50;40.80;;;;;;111200;1238;50244;-71
2023/05/24 03:05:19;;;;;;;;;16.00;15.00;24.50;40.90;;;;;;111307;1238;50096;-73
2023/05/24 03:07:46;;;;;;;;;15.00;13.67;24.50;40.90;;;;;;111240;1241;55158;-74
2023/05/24 03:10:13;;;;;;;;;13.25;12.50;24.50;40.90;;;;;;111287;1240;45059;-72
2023/05/24 03:12:39;;;;;;;;;17.00;14.33;24.50;40.90;;;;;;111200;1240;49123;-71
2023/05/24 03:15:07;;;;;;;;;17.25;14.75;24.50;41.10;;;;;;111198;1244;49012;-64
2023/05/24 03:17:34;;;;;;;;;15.75;14.75;24.50;41.00;;;;;;111310;1241;53437;-68
2023/05/24 03:20:01;;;;;;;;;15.25;14.00;24.50;41.00;;;;;;111206;1240;44794;-69
2023/05/24 03:22:28;;;;;;;;;15.75;13.75;24.50;41.00;;;;;;111338;1239;49363;-68
2023/05/24 03:24:55;;;;;;;;;15.75;14.00;24.40;41.10;;;;;;111107;1239;49358;-69
2023/05/24 03:27:22;;;;;;;;;16.00;15.00;24.40;40.90;;;;;;111274;1239;54080;-69
2023/05/24 03:29:49;;;;;;;;;15.00;13.67;24.40;40.90;;;;;;111222;1240;44526;-68
2023/05/24 03:32:16;;;;;;;;;16.00;15.00;24.40;41.10;;;;;;111208;1243;49134;-69
2023/05/24 03:34:43;;;;;;;;;15.50;14.00;24.40;40.90;;;;;;111054;1243;49818;-68
2023/05/24 03:37:10;;;;;;;;;18.33;14.00;24.40;40.90;;;;;;111160;1244;54557;-68
2023/05/24 03:39:36;;;;;;;;;14.75;13.50;24.40;40.80;;;;;;111254;1240;44293;-67
2023/05/24 03:42:04;;;;;;;;;17.75;15.25;24.40;40.90;;;;;;111366;1240;49770;-67
2023/05/24 03:44:30;;;;;;;;;21.33;19.67;24.40;41.00;;;;;;110972;1243;50057;-68
2023/05/24 03:46:57;;;;;;;;;14.75;13.75;24.40;41.30;;;;;;111209;1243;54316;-68
2023/05/24 03:49:24;;;;;;;;;17.75;14.75;24.40;41.60;;;;;;111281;1243;45053;-74
2023/05/24 03:51:51;;;;;;;;;17.00;14.00;24.40;41.40;;;;;;111299;1241;49399;-71
2023/05/24 03:54:18;;;;;;;;;15.00;14.00;24.40;41.40;;;;;;111116;1240;49477;-64
2023/05/24 03:56:45;;;;;;;;;16.00;15.00;24.40;41.20;;;;;;111227;1243;53941;-62
2023/05/24 03:59:12;;;;;;;;;17.25;15.00;24.40;41.00;;;;;;111287;1243;45614;-62
2023/05/24 04:01:39;;;;;;;;;17.00;14.50;24.30;40.80;;;;;;111226;1244;49642;-66
2023/05/24 04:04:06;;;;;;;;;17.00;15.00;24.30;40.20;;;;;;111192;1243;49637;-65
2023/05/24 04:06:35;;;;;;;;;16.25;14.00;24.20;40.10;;;;;;111104;1238;54630;-69
2023/05/24 04:09:04;;;;;;;;;17.33;15.00;24.20;40.20;;;;;;111422;1238;44726;-67
2023/05/24 04:11:31;;;;;;;;;16.25;15.25;24.10;40.50;;;;;;111274;1243;49797;-66
2023/05/24 04:14:01;;;;;;;;;16.00;15.00;24.10;40.50;;;;;;111261;1240;48878;-66
2023/05/24 04:16:28;;;;;;;;;17.33;14.67;24.00;40.60;;;;;;111010;1238;54961;-68
2023/05/24 04:18:55;;;;;;;;;17.00;16.00;24.00;40.70;;;;;;113286;1243;45217;-66
2023/05/24 04:21:22;;;;;;;;;14.00;13.25;24.00;40.90;;;;;;113312;1243;48995;-67
2023/05/24 04:23:49;;;;;;;;;17.00;16.00;24.10;40.90;;;;;;113305;1243;50210;-68
2023/05/24 04:26:17;;;;;;;;;21.00;14.00;24.30;40.70;;;;;;111737;1243;54102;-67
2023/05/24 04:28:47;;;;;;;;;16.75;15.75;24.50;40.50;;;;;;111207;1238;44314;-67
2023/05/24 04:31:17;;;;;;;;;17.50;15.75;24.50;40.60;;;;;;111322;1240;49143;-65
2023/05/24 04:33:43;;;;;;;;;16.00;15.00;24.40;40.40;;;;;;111148;1240;49058;-67
2023/05/24 04:36:12;;;;;;;;;15.50;13.50;24.30;41.00;;;;;;111237;1244;54609;-66
2023/05/24 04:38:39;;;;;;;;;16.33;13.67;24.20;41.10;;;;;;111241;1244;44530;-66
2023/05/24 04:41:06;;;;;;;;;21.50;17.75;24.20;41.50;;;;;;111199;1243;49098;-67
2023/05/24 04:43:33;;;;;;;;;16.00;15.00;24.10;41.40;;;;;;111220;1244;49658;-66
2023/05/24 04:46:01;;;;;;;;;17.50;15.00;24.10;41.50;;;;;;111214;1240;54691;-65
2023/05/24 04:48:27;;;;;;;;;18.67;16.00;24.00;41.60;;;;;;111188;1238;46156;-68
2023/05/24 04:50:56;;;;;;;;;20.67;17.33;24.00;41.80;;;;;;111197;1243;49671;-67
2023/05/24 04:53:24;;;;;;;;;19.50;17.25;24.00;42.00;;;;;;111237;1241;49718;-67
2023/05/24 04:55:51;;;;;;;;;16.00;15.00;24.00;42.10;;;;;;111165;1244;53542;-66
2023/05/24 04:58:19;;;;;;;;;17.00;16.00;24.00;42.60;;;;;;111231;1240;44624;-67
2023/05/24 05:00:46;;;;;;;;;17.00;14.75;24.00;43.20;;;;;;111224;1244;48915;-66
2023/05/24 05:03:12;;;;;;;;;16.00;13.33;24.00;43.40;;;;;;111304;1246;49276;-65
2023/05/24 05:05:39;;;;;;;;;17.50;14.75;24.00;43.20;;;;;;111356;1243;53696;-66
2023/05/24 05:08:06;;;;;;;;;18.00;17.00;24.00;43.50;;;;;;111289;1240;44811;-66
2023/05/24 05:10:34;;;;;;;;;14.00;12.67;24.00;43.40;;;;;;111198;1240;48798;-66
2023/05/24 05:13:02;;;;;;;;;17.75;16.75;24.00;43.50;;;;;;111223;1243;49907;-66
2023/05/24 05:15:29;;;;;;;;;19.75;17.00;24.00;43.50;;;;;;111312;1240;53785;-66
2023/05/24 05:17:56;;;;;;;;;14.75;13.50;24.00;45.40;;;;;;111225;1238;45378;-64
2023/05/24 05:20:23;;;;;;;;;21.50;19.00;24.00;44.80;;;;;;111347;1239;50063;-66
2023/05/24 05:22:50;;;;;;;;;20.25;17.75;24.00;45.50;;;;;;111291;1239;50146;-66
2023/05/24 05:25:17;;;;;;;;;20.50;18.25;24.00;44.90;;;;;;111318;1245;54512;-66
2023/05/24 05:27:44;;;;;;;;;21.25;18.00;24.10;45.20;;;;;;111247;1238;44717;-65
2023/05/24 05:30:12;;;;;;;;;24.33;18.67;24.20;45.60;;;;;;111283;1238;48870;-66
2023/05/24 05:32:39;;;;;;;;;19.50;18.25;24.20;45.40;;;;;;111342;1243;49922;-66
2023/05/24 05:35:07;;;;;;;;;17.00;16.00;24.20;45.10;;;;;;111315;1241;53843;-67
2023/05/24 05:37:34;;;;;;;;;17.50;16.50;24.30;45.20;;;;;;111317;1238;44540;-65
2023/05/24 05:40:02;;;;;;;;;21.50;20.50;24.40;44.90;;;;;;111259;1240;50205;-65
2023/05/24 05:42:29;;;;;;;;;17.25;16.00;24.40;44.60;;;;;;111306;1243;49960;-65
2023/05/24 05:44:56;;;;;;;;;21.00;18.00;24.40;44.50;;;;;;111383;1244;54693;-65
2023/05/24 05:47:23;;;;;;;;;18.25;17.50;24.40;44.60;;;;;;111258;1238;45439;-65
2023/05/24 05:49:50;;;;;;;;;21.50;18.00;24.40;44.40;;;;;;111171;1240;48820;-65
2023/05/24 05:52:17;;;;;;;;;17.75;16.50;24.50;44.90;;;;;;111133;1240;49101;-65
2023/05/24 05:54:44;;;;;;;;;20.00;19.00;24.50;44.80;;;;;;111238;1239;54823;-65
2023/05/24 05:57:11;;;;;;;;;21.00;18.67;24.50;44.40;;;;;;111346;1244;44976;-66
2023/05/24 05:59:38;;;;;;;;;18.00;15.00;24.60;44.50;;;;;;111217;1239;49163;-66
2023/05/24 06:02:05;;;;;;;;;17.00;16.00;24.60;44.50;;;;;;111233;1241;49845;-64
2023/05/24 06:04:33;;;;;;;;;20.33;19.00;24.60;44.30;;;;;;111248;1244;54167;-65
2023/05/24 06:06:59;;;;;;;;;18.75;17.75;24.60;44.80;;;;;;111244;1242;44154;-65
2023/05/24 06:09:26;;;;;;;;;19.00;16.25;24.70;44.90;;;;;;111247;1243;49046;-65
2023/05/24 06:11:53;;;;;;;;;19.75;17.00;24.70;45.50;;;;;;111281;1244;49560;-65
2023/05/24 06:14:21;;;;;;;;;24.00;19.67;24.70;45.00;;;;;;111369;1243;54352;-65
2023/05/24 06:16:48;;;;;;;;;16.33;15.33;24.80;44.90;;;;;;111236;1240;44967;-66
2023/05/24 06:19:15;;;;;;;;;23.00;17.67;24.80;44.80;;;;;;111224;1243;48883;-66
2023/05/24 06:21:46;;;;;;;;;18.50;16.75;24.80;44.90;;;;;;111235;1238;49277;-66
2023/05/24 06:24:14;;;;;;;;;19.50;17.75;24.90;45.10;;;;;;111413;1240;53875;-66
2023/05/24 06:26:41;;;;;;;;;21.00;18.00;24.90;45.30;;;;;;111173;1241;44291;-66
2023/05/24 06:29:09;;;;;;;;;18.00;16.00;24.90;44.90;;;;;;111259;1238;49295;-65
2023/05/24 06:31:36;;;;;;;;;18.00;16.50;24.90;45.10;;;;;;111253;1240;49873;-66
2023/05/24 06:34:03;;;;;;;;;20.00;17.33;25.00;45.00;;;;;;111340;1241;54292;-65
2023/05/24 06:36:41;;;;;;;;;19.75;17.00;25.00;45.00;;;;;;111227;1243;44981;-65
2023/05/24 06:39:09;;;;;;;;;19.25;18.50;25.10;45.30;;;;;;111283;1238;49335;-65
2023/05/24 06:41:37;;;;;;;;;19.00;17.67;25.10;45.30;;;;;;111193;1244;50865;-65
2023/05/24 06:44:05;;;;;;;;;19.00;16.00;25.10;45.00;;;;;;111213;1241;53915;-66
2023/05/24 06:46:32;;;;;;;;;23.67;22.00;25.20;44.70;;;;;;111218;1240;45139;-66
2023/05/24 06:48:59;;;;;;;;;21.50;16.00;25.20;45.10;;;;;;111359;1242;49277;-65
2023/05/24 06:51:25;;;;;;;;;23.00;21.00;25.20;45.30;;;;;;111334;1243;49223;-66
2023/05/24 06:53:52;;;;;;;;;21.00;16.50;25.20;45.40;;;;;;111253;1243;53555;-66
2023/05/24 06:56:20;;;;;;;;;19.50;17.00;25.20;45.20;;;;;;111298;1241;46032;-66
2023/05/24 06:58:47;;;;;;;;;16.75;15.75;25.20;45.40;;;;;;111330;1239;49562;-65
2023/05/24 07:01:14;;;;;;;;;19.75;18.75;25.30;45.70;;;;;;111231;1240;49359;-65
2023/05/24 07:03:41;;;;;;;;;18.33;17.00;25.30;45.30;;;;;;111250;1243;54141;-66
2023/05/24 07:06:11;;;;;;;;;15.75;14.75;25.30;45.20;;;;;;111383;1239;44587;-66
2023/05/24 07:08:37;;;;;;;;;20.00;17.25;25.30;45.10;;;;;;111195;1243;50339;-66
2023/05/24 07:11:05;;;;;;;;;17.33;16.33;25.40;45.20;;;;;;111277;1243;49752;-67
2023/05/24 07:13:32;;;;;;;;;19.00;16.33;25.40;45.50;;;;;;111218;1240;53397;-66
2023/05/24 07:15:59;;;;;;;;;19.00;18.00;25.40;45.10;;;;;;111257;1238;44698;-66
2023/05/24 07:18:26;;;;;;;;;24.25;20.50;25.50;45.20;;;;;;111223;1240;49879;-67
2023/05/24 07:20:53;;;;;;;;;19.25;16.25;25.50;45.60;;;;;;111270;1244;49863;-66
2023/05/24 07:23:20;;;;;;;;;18.00;15.25;25.50;45.30;;;;;;111325;1243;53213;-66
2023/05/24 07:25:48;;;;;;;;;22.00;19.00;25.50;45.80;;;;;;111367;1240;44603;-67
2023/05/24 07:28:18;;;;;;;;;15.25;14.00;25.50;46.30;;;;;;111367;1244;49681;-65
2023/05/24 07:30:46;;;;;;;;;21.00;18.50;25.50;46.30;;;;;;111373;1243;49946;-64
2023/05/24 07:33:12;;;;;;;;;20.00;18.75;25.60;46.10;;;;;;111399;1238;54352;-66
2023/05/24 07:35:40;;;;;;;;;20.25;17.00;25.70;46.20;;;;;;111486;1238;44645;-65
2023/05/24 07:38:07;;;;;;;;;21.25;18.00;25.70;46.00;;;;;;111621;1240;50405;-67
2023/05/24 07:40:34;;;;;;;;;20.00;17.67;25.70;46.00;;;;;;111437;1243;49992;-64
2023/05/24 07:43:01;;;;;;;;;22.00;20.00;25.80;45.60;;;;;;111383;1240;54130;-64
2023/05/24 07:45:29;;;;;;;;;19.33;18.33;25.80;45.90;;;;;;111277;1243;45287;-68
2023/05/24 07:47:56;;;;;;;;;20.75;19.00;25.90;46.00;;;;;;111318;1243;49510;-67
2023/05/24 07:50:23;;;;;;;;;20.75;16.75;25.90;45.70;;;;;;111271;1239;50348;-67
2023/05/24 07:52:50;;;;;;;;;20.00;17.50;25.90;45.80;;;;;;111227;1240;54799;-67
2023/05/24 07:55:17;;;;;;;;;22.25;19.25;26.00;45.90;;;;;;111271;1244;44782;-66
2023/05/24 07:57:44;;;;;;;;;18.75;17.00;26.00;46.00;;;;;;110678;1241;747815;-70
2023/05/24 08:00:13;;;;;;;;;21.00;19.67;26.00;45.70;;;;;;111244;1243;49128;-67
2023/05/24 08:02:41;;;;;;;;;18.50;17.50;26.10;45.10;;;;;;111272;1239;53501;-66
2023/05/24 08:05:11;;;;;;;;;17.75;16.75;26.10;45.60;;;;;;111344;1240;44954;-67
2023/05/24 08:07:39;;;;;;;;;18.00;17.00;26.10;45.80;;;;;;111583;1241;49675;-67
2023/05/24 08:10:09;;;;;;;;;19.25;16.75;26.20;45.70;;;;;;111579;1244;49767;-70
2023/05/24 08:12:36;;;;;;;;;17.00;14.75;26.30;45.70;;;;;;111504;1243;53966;-66
2023/05/24 08:15:04;;;;;;;;;16.00;15.00;26.30;45.50;;;;;;111455;1239;44392;-67
2023/05/24 08:17:31;;;;;;;;;20.67;18.33;26.40;45.70;;;;;;111461;1243;49184;-66
2023/05/24 08:19:57;;;;;;;;;21.33;19.67;26.50;45.40;;;;;;111468;1240;49105;-66
2023/05/24 08:22:24;;;;;;;;;17.00;16.00;26.50;45.40;;;;;;111362;1240;54888;-67
2023/05/24 08:24:52;;;;;;;;;20.67;19.33;26.50;45.20;;;;;;111412;1238;45294;-69
2023/05/24 08:27:19;;;;;;;;;19.75;16.00;26.50;45.20;;;;;;111284;1240;49750;-65
2023/05/24 08:29:46;;;;;;;;;19.25;15.50;26.60;45.30;;;;;;111212;1242;50448;-68
2023/05/24 08:32:13;;;;;;;;;25.33;23.67;26.60;45.50;;;;;;111332;1240;54276;-69
2023/05/24 08:34:40;;;;;;;;;18.67;17.67;26.60;45.30;;;;;;111345;1239;44289;-73
2023/05/24 08:37:08;;;;;;;;;15.00;14.00;26.60;45.20;;;;;;111326;1240;48780;-68
2023/05/24 08:39:35;;;;;;;;;17.50;16.25;26.70;45.60;;;;;;111508;1243;48875;-70
2023/05/24 08:42:04;;;;;;;;;18.00;16.00;26.70;45.40;;;;;;111448;1244;53771;-63
2023/05/24 08:44:38;;;;;;;;;18.00;16.00;26.70;45.60;;;;;;111401;1240;45024;-68
2023/05/24 08:47:06;;;;;;;;;16.00;15.00;26.70;45.60;;;;;;111458;1240;49416;-68
2023/05/24 08:49:36;;;;;;;;;17.75;16.25;26.80;46.00;;;;;;111441;1243;49906;-67
2023/05/24 08:52:04;;;;;;;;;16.25;15.25;26.80;45.50;;;;;;111498;1241;53542;-70
2023/05/24 08:54:33;;;;;;;;;16.25;15.25;26.90;45.40;;;;;;111380;1242;44322;-67
2023/05/24 08:57:01;;;;;;;;;19.00;17.00;26.90;45.20;;;;;;111279;1240;50519;-65
2023/05/24 08:59:28;;;;;;;;;16.25;15.25;27.00;45.10;;;;;;111290;1244;49601;-70
2023/05/24 09:01:56;;;;;;;;;16.50;15.00;27.00;45.10;;;;;;111241;1240;54881;-66
2023/05/24 09:04:23;;;;;;;;;17.50;16.50;27.00;45.10;;;;;;111344;1240;44165;-65
2023/05/24 09:06:51;;;;;;;;;23.00;19.33;27.00;45.00;;;;;;111246;1240;49598;-64
2023/05/24 09:09:20;;;;;;;;;18.75;17.75;27.10;44.50;;;;;;111184;1240;49653;-65
2023/05/24 09:11:51;;;;;;;;;19.00;18.00;27.10;44.50;;;;;;111702;1242;54178;-64
2023/05/24 09:14:18;;;;;;;;;18.00;16.00;27.10;44.40;;;;;;111176;1242;44639;-66
2023/05/24 09:16:45;;;;;;;;;18.50;17.25;27.20;44.50;;;;;;111027;1241;49336;-66
2023/05/24 09:19:12;;;;;;;;;24.25;20.25;27.20;45.10;;;;;;111134;1240;49518;-64
2023/05/24 09:21:40;;;;;;;;;21.33;18.00;27.20;44.50;;;;;;111195;1243;53714;-67
2023/05/24 09:24:07;;;;;;;;;21.50;20.75;27.20;44.00;;;;;;111174;1243;44659;-63
2023/05/24 09:26:37;;;;;;;;;19.00;18.00;27.20;44.50;;;;;;111193;1240;49712;-64
2023/05/24 09:29:08;;;;;;;;;18.00;16.00;27.10;44.50;;;;;;111305;1240;49006;-64
2023/05/24 09:31:37;;;;;;;;;21.75;19.25;27.10;44.70;;;;;;111336;1242;54578;-65
2023/05/24 09:34:10;;;;;;;;;23.00;18.00;27.10;44.70;;;;;;111294;1239;44337;-63
2023/05/24 09:36:41;;;;;;;;;18.00;17.00;27.10;45.00;;;;;;111252;1244;49318;-65
2023/05/24 09:39:09;;;;;;;;;17.67;16.67;27.10;45.10;;;;;;111278;1245;50330;-65
2023/05/24 09:41:36;;;;;;;;;20.00;18.67;27.00;45.60;;;;;;111346;1240;53760;-65
2023/05/24 09:44:04;;;;;;;;;20.00;18.75;27.00;45.40;;;;;;111355;1242;45278;-65
2023/05/24 09:46:37;;;;;;;;;18.00;17.00;26.90;45.20;;;;;;111340;1244;49226;-67
2023/05/24 09:49:06;;;;;;;;;19.67;18.33;26.90;45.40;;;;;;111302;1241;49081;-64
2023/05/24 09:51:37;;;;;;;;;20.25;19.25;26.90;45.20;;;;;;111193;1243;53443;-67
2023/05/24 09:54:04;;;;;;;;;20.25;18.25;27.00;45.20;;;;;;111259;1244;44827;-63
2023/05/24 09:56:32;;;;;;;;;16.75;15.75;26.90;45.70;;;;;;111587;1240;49789;-67
2023/05/24 09:59:06;;;;;;;;;16.75;15.25;27.00;44.30;;;;;;111293;1241;50702;-65
2023/05/24 10:01:34;;;;;;;;;22.00;18.00;27.00;43.40;;;;;;111304;1237;54860;-63
2023/05/24 10:04:05;;;;;;;;;20.00;19.00;27.00;44.30;;;;;;111329;1242;44976;-64
2023/05/24 10:06:36;;;;;;;;;21.00;18.75;27.10;44.50;;;;;;111303;1244;49433;-64
2023/05/24 10:09:07;;;;;;;;;19.00;18.00;27.10;44.60;;;;;;111381;1243;49162;-64
2023/05/24 10:11:36;;;;;;;;;15.25;14.25;27.20;44.70;;;;;;111252;1243;53787;-63
2023/05/24 10:14:08;;;;;;;;;19.00;17.00;27.30;44.60;;;;;;111406;1240;45860;-67
2023/05/24 10:16:37;;;;;;;;;19.00;17.75;27.30;44.60;;;;;;111290;1243;50638;-68
2023/05/24 10:19:06;;;;;;;;;17.75;16.75;27.30;44.80;;;;;;111429;1243;49707;-66
2023/05/24 10:21:36;;;;;;;;;20.00;17.00;27.30;44.70;;;;;;111399;1243;54276;-69
2023/05/24 10:24:05;;;;;;;;;19.75;16.25;27.30;45.00;;;;;;111254;1240;44323;-68
2023/05/24 10:26:32;;;;;;;;;20.25;17.50;27.30;44.90;;;;;;111531;1239;49766;-63
2023/05/24 10:29:05;;;;;;;;;20.00;18.00;27.40;44.90;;;;;;111308;1240;49233;-65
2023/05/24 10:31:36;;;;;;;;;19.00;18.00;27.30;44.70;;;;;;111273;1244;53881;-69
2023/05/24 10:34:04;;;;;;;;;19.75;17.00;27.40;44.90;;;;;;111248;1240;45185;-67
2023/05/24 10:36:32;;;;;;;;;16.00;15.00;27.40;43.70;;;;;;111230;1244;49012;-68
2023/05/24 10:39:00;;;;;;;;;18.50;16.00;27.40;43.60;;;;;;111229;1244;50030;-65
2023/05/24 10:41:27;;;;;;;;;17.50;14.75;27.40;43.90;;;;;;111433;1240;54147;-66
2023/05/24 10:43:56;;;;;;;;;20.50;17.25;27.40;44.40;;;;;;111373;1243;45354;-68
2023/05/24 10:46:23;;;;;;;;;23.00;19.50;27.40;44.30;;;;;;111406;1240;49623;-68
2023/05/24 10:49:01;;;;;;;;;17.50;16.00;27.50;44.50;;;;;;111458;1240;49380;-69
2023/05/24 10:51:37;;;;;;;;;18.00;16.75;27.50;44.50;;;;;;111468;1238;53488;-67
2023/05/24 10:54:17;;;;;;;;;17.00;16.00;27.60;44.50;;;;;;111288;1241;44456;-65
2023/05/24 10:56:47;;;;;;;;;20.00;19.00;27.60;44.60;;;;;;111324;1238;49701;-67
2023/05/24 10:59:33;;;;;;;;;18.75;17.75;27.60;44.70;;;;;;111286;1243;49334;-65
2023/05/24 11:02:00;;;;;;;;;19.00;15.00;27.60;44.40;;;;;;111304;1243;53040;-69
2023/05/24 11:04:32;;;;;;;;;24.00;14.75;27.60;43.40;;;;;;111331;1238;45657;-67
2023/05/24 11:07:04;;;;;;;;;13.50;12.50;27.60;43.20;;;;;;111209;1241;49292;-67
2023/05/24 11:09:32;;;;;;;;;14.00;11.00;27.60;43.70;;;;;;112108;1243;49691;-68
2023/05/24 11:12:08;;;;;;;;;12.67;11.67;27.50;44.20;;;;;;111241;1243;54054;-66
2023/05/24 11:14:38;;;;;;;;;11.75;9.00;27.40;44.60;;;;;;111247;1242;44290;-66
2023/05/24 11:17:06;;;;;;;;;14.00;13.00;27.20;45.40;;;;;;111338;1244;50371;-67
2023/05/24 11:19:33;;;;;;;;;12.67;12.00;27.10;45.50;;;;;;111316;1238;50613;-65
2023/05/24 11:22:03;;;;;;;;;14.00;13.00;26.90;45.30;;;;;;111367;1244;54089;-65
2023/05/24 11:24:31;;;;;;;;;12.67;11.67;26.80;45.50;;;;;;111312;1243;44847;-67
2023/05/24 11:27:00;;;;;;;;;12.75;11.75;26.60;45.80;;;;;;111341;1240;49335;-65
2023/05/24 11:29:28;;;;;;;;;14.00;12.00;26.50;46.10;;;;;;111304;1244;49088;-66
2023/05/24 11:32:06;;;;;;;;;13.50;12.25;26.50;46.40;;;;;;111263;1240;54082;-67
2023/05/24 11:34:33;;;;;;;;;11.75;10.75;26.50;46.30;;;;;;111371;1244;44504;-65
2023/05/24 11:37:04;;;;;;;;;15.33;13.00;26.50;46.30;;;;;;111334;1241;49476;-68
2023/05/24 11:39:33;;;;;;;;;15.50;13.00;26.50;46.50;;;;;;111374;1241;49414;-67
2023/05/24 11:42:01;;;;;;;;;13.00;12.00;26.50;46.30;;;;;;111361;1241;53368;-66
2023/05/24 11:44:30;;;;;;;;;12.75;10.75;26.50;46.20;;;;;;111219;1240;45258;-65
2023/05/24 11:46:59;;;;;;;;;13.25;12.25;26.50;46.30;;;;;;111317;1244;49266;-67
2023/05/24 11:49:26;;;;;;;;;14.00;13.00;26.60;46.30;;;;;;111405;1244;49115;-66
2023/05/24 11:51:55;;;;;;;;;15.75;14.75;26.60;46.30;;;;;;111340;1242;54221;-64
2023/05/24 11:54:31;;;;;;;;;12.25;10.50;26.60;46.30;;;;;;111248;1243;44974;-61
2023/05/24 11:56:58;;;;;;;;;18.25;12.00;26.70;46.30;;;;;;111344;1240;49013;-62
2023/05/24 11:59:26;;;;;;;;;16.00;11.75;26.70;46.30;;;;;;111252;1243;49037;-65
2023/05/24 12:02:02;;;;;;;;;13.00;12.00;26.70;46.40;;;;;;111224;1238;53531;-64
2023/05/24 12:04:30;;;;;;;;;15.00;12.67;26.70;46.50;;;;;;111222;1243;45384;-62
2023/05/24 12:06:57;;;;;;;;;15.00;14.00;26.70;46.40;;;;;;111199;1244;50282;-65
2023/05/24 12:09:24;;;;;;;;;24.50;22.50;26.70;46.50;;;;;;111216;1244;49733;-65
2023/05/24 12:11:52;;;;;;;;;21.25;18.75;26.70;46.50;;;;;;111298;1239;54873;-65
2023/05/24 12:14:25;;;;;;;;;17.25;15.00;26.70;46.60;;;;;;111221;1241;44344;-63
2023/05/24 12:16:55;;;;;;;;;20.50;16.25;26.70;46.80;;;;;;111154;1240;48758;-63
2023/05/24 12:19:28;;;;;;;;;15.25;14.00;26.70;46.90;;;;;;111151;1244;49689;-63
2023/05/24 12:21:56;;;;;;;;;19.67;17.67;26.70;46.80;;;;;;111237;1241;54409;-59
2023/05/24 12:24:25;;;;;;;;;17.00;14.00;26.70;47.00;;;;;;111287;1239;45652;-66